createdAt,value
2018-11-26T00:01:06.062Z,4.70
2018-11-26T00:03:34.462Z,4.70
2018-11-26T00:06:02.318Z,4.70
2018-11-26T00:08:30.295Z,4.70
2018-11-26T00:11:42.344Z,4.70
2018-11-26T00:14:10.373Z,4.70
2018-11-26T00:16:38.316Z,4.70
2018-11-26T00:19:06.324Z,4.70
2018-11-26T00:21:34.164Z,4.70
2018-11-26T00:24:02.373Z,4.70
2018-11-26T00:26:30.279Z,4.70
2018-11-26T00:28:58.882Z,4.70
2018-11-26T00:31:27.106Z,4.80
2018-11-26T00:33:55.011Z,4.70
2018-11-26T00:36:22.886Z,4.70
2018-11-26T00:38:51.000Z,4.80
2018-11-26T00:41:18.892Z,4.80
2018-11-26T00:43:46.802Z,4.80
2018-11-26T00:46:14.661Z,4.80
2018-11-26T00:48:42.486Z,4.80
2018-11-26T00:51:10.320Z,4.80
2018-11-26T00:53:38.604Z,4.80
2018-11-26T00:56:06.515Z,4.80
2018-11-26T00:58:34.344Z,4.80
2018-11-26T01:01:14.398Z,4.70
2018-11-26T01:03:44.596Z,4.80
2018-11-26T01:06:12.540Z,4.80
2018-11-26T01:08:40.367Z,4.80
2018-11-26T01:13:56.915Z,4.80
2018-11-26T01:16:24.757Z,4.80
2018-11-26T01:18:52.609Z,4.80
2018-11-26T01:21:20.439Z,4.80
2018-11-26T01:23:48.486Z,4.80
2018-11-26T01:26:17.052Z,4.80
2018-11-26T01:28:52.146Z,4.80
2018-11-26T01:31:20.120Z,4.80
2018-11-26T01:33:47.941Z,4.90
2018-11-26T01:36:17.904Z,4.80
2018-11-26T01:38:48.373Z,4.80
2018-11-26T01:41:16.234Z,4.90
2018-11-26T01:43:44.187Z,4.80
2018-11-26T01:46:12.004Z,4.80
2018-11-26T01:48:39.904Z,4.80
2018-11-26T01:51:07.997Z,4.80
2018-11-26T01:53:35.807Z,4.90
2018-11-26T01:56:07.497Z,4.90
2018-11-26T01:58:35.343Z,4.80
2018-11-26T02:01:03.256Z,4.80
2018-11-26T02:03:31.089Z,4.80
2018-11-26T02:05:58.922Z,4.90
2018-11-26T02:08:26.869Z,4.90
2018-11-26T02:10:54.696Z,4.90
2018-11-26T02:13:22.561Z,4.90
2018-11-26T02:15:50.490Z,4.90
2018-11-26T02:18:18.327Z,4.90
2018-11-26T02:20:46.157Z,4.90
2018-11-26T02:23:14.119Z,4.90
2018-11-26T02:25:41.956Z,4.90
2018-11-26T02:28:10.221Z,4.90
2018-11-26T02:30:38.173Z,4.90
2018-11-26T02:33:06.122Z,4.90
2018-11-26T02:35:33.989Z,4.90
2018-11-26T02:38:01.860Z,4.90
2018-11-26T02:40:31.100Z,4.90
2018-11-26T02:42:59.019Z,5.00
2018-11-26T02:45:27.763Z,4.90
2018-11-26T02:47:55.717Z,5.00
2018-11-26T02:50:23.566Z,5.00
2018-11-26T02:52:51.446Z,4.90
2018-11-26T02:55:19.350Z,4.90
2018-11-26T02:57:47.257Z,4.90
2018-11-26T03:00:15.166Z,4.90
2018-11-26T03:02:43.357Z,4.90
2018-11-26T03:05:12.302Z,5.00
2018-11-26T03:07:40.312Z,5.00
2018-11-26T03:10:09.377Z,5.00
2018-11-26T03:12:37.919Z,5.00
2018-11-26T03:15:12.149Z,5.00
2018-11-26T03:17:40.018Z,5.00
2018-11-26T03:20:09.593Z,5.00
2018-11-26T03:22:37.583Z,5.00
2018-11-26T03:25:08.001Z,5.00
2018-11-26T03:27:35.878Z,5.00
2018-11-26T03:30:07.116Z,5.00
2018-11-26T03:32:35.003Z,5.00
2018-11-26T03:35:02.858Z,5.10
2018-11-26T03:37:30.723Z,5.00
2018-11-26T03:39:58.600Z,5.00
2018-11-26T03:42:27.920Z,5.00
2018-11-26T03:44:55.760Z,5.00
2018-11-26T03:47:23.607Z,5.10
2018-11-26T03:49:51.475Z,5.10
2018-11-26T03:52:19.331Z,5.10
2018-11-26T03:54:47.240Z,5.10
2018-11-26T03:57:15.047Z,5.10
2018-11-26T03:59:42.865Z,5.10
2018-11-26T04:02:10.785Z,5.10
2018-11-26T04:04:38.573Z,5.10
2018-11-26T04:07:06.546Z,5.10
2018-11-26T04:09:36.003Z,5.10
2018-11-26T04:12:03.941Z,5.10
2018-11-26T04:14:38.113Z,5.10
2018-11-26T04:17:06.156Z,5.10
2018-11-26T04:19:34.399Z,5.10
2018-11-26T04:22:02.256Z,5.10
2018-11-26T04:24:34.591Z,5.20
2018-11-26T04:27:03.298Z,5.20
2018-11-26T04:29:31.167Z,5.20
2018-11-26T04:31:59.049Z,5.20
2018-11-26T04:34:27.037Z,5.20
2018-11-26T04:36:54.903Z,5.20
2018-11-26T04:39:22.771Z,5.20
2018-11-26T04:41:50.691Z,5.20
2018-11-26T04:44:18.589Z,5.20
2018-11-26T04:46:46.557Z,5.20
2018-11-26T04:49:14.494Z,5.20
2018-11-26T04:51:42.383Z,5.20
2018-11-26T04:54:10.202Z,5.20
2018-11-26T04:56:38.129Z,5.20
2018-11-26T04:59:07.080Z,5.20
2018-11-26T05:01:34.880Z,5.20
2018-11-26T05:04:02.847Z,5.20
2018-11-26T05:06:30.849Z,5.20
2018-11-26T05:08:58.677Z,5.20
2018-11-26T05:11:26.494Z,5.20
2018-11-26T05:13:54.568Z,5.20
2018-11-26T05:16:22.418Z,5.20
2018-11-26T05:18:50.423Z,5.30
2018-11-26T05:21:18.265Z,5.30
2018-11-26T05:23:46.419Z,5.30
2018-11-26T05:26:14.280Z,5.30
2018-11-26T05:28:42.971Z,5.30
2018-11-26T05:31:10.839Z,5.30
2018-11-26T05:33:38.639Z,5.30
2018-11-26T05:36:06.501Z,5.30
2018-11-26T05:38:34.462Z,5.30
2018-11-26T05:41:03.290Z,5.30
2018-11-26T05:43:31.138Z,5.30
2018-11-26T05:45:59.065Z,5.30
2018-11-26T05:48:26.962Z,5.30
2018-11-26T05:50:54.772Z,5.40
2018-11-26T05:53:22.741Z,5.40
2018-11-26T05:55:50.578Z,5.40
2018-11-26T05:58:18.439Z,5.40
2018-11-26T06:00:46.289Z,5.40
2018-11-26T06:03:14.324Z,5.40
2018-11-26T06:05:42.223Z,5.40
2018-11-26T06:08:10.011Z,5.40
2018-11-26T06:10:38.064Z,5.40
2018-11-26T06:13:06.135Z,5.40
2018-11-26T06:15:34.298Z,5.40
2018-11-26T06:18:02.187Z,5.40
2018-11-26T06:20:30.031Z,5.40
2018-11-26T06:22:58.007Z,5.40
2018-11-26T06:25:25.897Z,5.40
2018-11-26T06:27:53.797Z,5.40
2018-11-26T06:30:22.974Z,5.40
2018-11-26T06:32:50.925Z,5.40
2018-11-26T06:35:21.014Z,5.40
2018-11-26T06:37:49.117Z,5.30
2018-11-26T06:40:17.412Z,5.50
2018-11-26T06:42:45.382Z,5.50
2018-11-26T06:45:18.746Z,5.50
2018-11-26T06:47:46.608Z,5.50
2018-11-26T06:50:15.547Z,5.50
2018-11-26T06:52:44.449Z,5.50
2018-11-26T06:55:14.453Z,5.50
2018-11-26T06:57:42.381Z,5.50
2018-11-26T07:00:12.594Z,5.50
2018-11-26T07:02:40.458Z,5.50
2018-11-26T07:05:13.916Z,5.50
2018-11-26T07:07:41.956Z,5.50
2018-11-26T07:10:10.888Z,5.50
2018-11-26T07:12:39.594Z,5.50
2018-11-26T07:15:10.832Z,5.50
2018-11-26T07:17:38.751Z,5.50
2018-11-26T07:20:10.750Z,5.50
2018-11-26T07:22:38.790Z,5.50
2018-11-26T07:25:10.237Z,5.50
2018-11-26T07:27:38.127Z,5.50
2018-11-26T07:30:21.976Z,5.50
2018-11-26T07:32:49.927Z,5.50
2018-11-26T07:35:17.924Z,5.50
2018-11-26T07:37:45.868Z,5.50
2018-11-26T07:40:15.737Z,5.60
2018-11-26T07:42:46.160Z,5.60
2018-11-26T07:45:14.337Z,5.60
2018-11-26T07:47:42.154Z,5.60
2018-11-26T07:50:14.322Z,5.60
2018-11-26T07:52:42.232Z,5.60
2018-11-26T07:55:12.324Z,5.60
2018-11-26T07:57:40.186Z,5.60
2018-11-26T08:00:12.122Z,5.60
2018-11-26T08:02:39.969Z,5.70
2018-11-26T08:05:12.406Z,5.70
2018-11-26T08:07:40.337Z,5.70
2018-11-26T08:10:11.372Z,5.70
2018-11-26T08:12:39.315Z,5.70
2018-11-26T08:15:12.421Z,5.70
2018-11-26T08:17:40.306Z,5.70
2018-11-26T08:20:08.822Z,5.70
2018-11-26T08:22:37.242Z,5.70
2018-11-26T08:25:08.102Z,5.70
2018-11-26T08:27:36.119Z,5.70
2018-11-26T08:30:05.828Z,5.80
2018-11-26T08:32:34.114Z,5.80
2018-11-26T08:35:01.567Z,5.80
2018-11-26T08:37:33.666Z,5.80
2018-11-26T08:40:07.402Z,5.80
2018-11-26T08:43:44.229Z,5.90
2018-11-26T08:46:17.812Z,5.90
2018-11-26T08:49:51.600Z,5.90
2018-11-26T08:52:20.007Z,5.90
2018-11-26T08:54:47.839Z,5.90
2018-11-26T08:57:15.765Z,5.90
2018-11-26T08:59:43.635Z,5.90
2018-11-26T09:02:12.706Z,5.90
2018-11-26T09:04:46.546Z,5.90
2018-11-26T09:07:14.389Z,6.00
2018-11-26T09:09:43.256Z,6.00
2018-11-26T09:12:12.121Z,6.00
2018-11-26T09:14:39.969Z,6.00
2018-11-26T09:17:07.775Z,6.00
2018-11-26T09:19:35.579Z,6.10
2018-11-26T09:22:03.472Z,6.10
2018-11-26T09:24:31.302Z,6.10
2018-11-26T09:26:59.789Z,6.10
2018-11-26T09:29:27.726Z,6.10
2018-11-26T09:31:55.536Z,6.10
2018-11-26T09:34:23.768Z,6.10
2018-11-26T09:36:51.625Z,6.10
2018-11-26T09:39:19.472Z,6.10
2018-11-26T09:41:47.341Z,6.10
2018-11-26T09:44:17.268Z,6.10
2018-11-26T09:46:45.118Z,6.20
2018-11-26T09:49:13.856Z,6.20
2018-11-26T09:51:42.315Z,6.20
2018-11-26T09:54:11.320Z,6.20
2018-11-26T09:56:39.291Z,6.20
2018-11-26T09:59:07.187Z,6.20
2018-11-26T10:01:35.142Z,6.20
2018-11-26T10:04:04.220Z,6.30
2018-11-26T10:06:32.114Z,6.30
2018-11-26T10:08:59.953Z,6.30
2018-11-26T10:11:27.796Z,6.30
2018-11-26T10:13:55.642Z,6.30
2018-11-26T10:16:23.457Z,6.40
2018-11-26T10:18:51.314Z,6.30
2018-11-26T10:21:19.139Z,6.40
2018-11-26T10:23:47.817Z,6.40
2018-11-26T10:26:15.659Z,6.40
2018-11-26T10:28:43.548Z,6.40
2018-11-26T10:31:11.390Z,6.40
2018-11-26T10:33:39.238Z,6.40
2018-11-26T10:36:07.113Z,6.40
2018-11-26T10:38:35.243Z,6.40
2018-11-26T10:41:03.066Z,6.40
2018-11-26T10:43:30.970Z,6.40
2018-11-26T10:45:58.793Z,6.40
2018-11-26T10:48:27.064Z,6.40
2018-11-26T10:50:54.880Z,6.40
2018-11-26T10:53:22.724Z,6.40
2018-11-26T10:55:50.562Z,6.50
2018-11-26T10:58:18.394Z,6.50
2018-11-26T11:00:51.812Z,6.50
2018-11-26T11:03:19.619Z,6.50
2018-11-26T11:05:47.448Z,6.60
2018-11-26T11:08:15.293Z,6.50
2018-11-26T11:10:43.114Z,6.60
2018-11-26T11:13:10.917Z,6.60
2018-11-26T11:15:39.183Z,6.70
2018-11-26T11:18:07.492Z,6.70
2018-11-26T11:20:35.558Z,6.70
2018-11-26T11:23:03.945Z,6.70
2018-11-26T11:25:31.737Z,6.70
2018-11-26T11:28:01.543Z,6.70
2018-11-26T11:30:32.197Z,6.70
2018-11-26T11:35:27.787Z,6.60
2018-11-26T11:37:56.923Z,6.60
2018-11-26T11:40:29.574Z,6.60
2018-11-26T11:42:58.279Z,6.60
2018-11-26T11:45:26.711Z,6.60
2018-11-26T11:47:54.748Z,6.60
2018-11-26T11:50:22.663Z,6.60
2018-11-26T11:52:51.019Z,6.60
2018-11-26T11:55:21.780Z,6.60
2018-11-26T11:57:49.819Z,6.60
2018-11-26T12:00:36.760Z,6.70
2018-11-26T12:03:07.237Z,6.70
2018-11-26T12:05:35.105Z,6.70
2018-11-26T12:08:02.983Z,6.70
2018-11-26T12:10:32.030Z,6.70
2018-11-26T12:12:59.978Z,6.70
2018-11-26T12:15:27.782Z,6.70
2018-11-26T12:17:55.660Z,6.70
2018-11-26T12:20:23.488Z,6.80
2018-11-26T12:22:51.430Z,6.80
2018-11-26T12:25:20.182Z,6.80
2018-11-26T12:27:48.038Z,6.80
2018-11-26T12:30:22.436Z,6.80
2018-11-26T12:32:50.301Z,6.80
2018-11-26T12:35:18.266Z,6.80
2018-11-26T12:37:46.168Z,6.80
2018-11-26T12:40:16.322Z,6.80
2018-11-26T12:42:44.194Z,6.80
2018-11-26T12:45:19.306Z,6.80
2018-11-26T12:47:47.162Z,6.80
2018-11-26T12:50:15.200Z,6.80
2018-11-26T12:52:43.049Z,6.80
2018-11-26T12:55:15.269Z,6.80
2018-11-26T12:57:43.812Z,6.80
2018-11-26T13:00:14.852Z,6.80
2018-11-26T13:02:44.287Z,6.80
2018-11-26T13:05:15.158Z,6.80
2018-11-26T13:07:43.132Z,6.80
2018-11-26T13:10:17.242Z,6.80
2018-11-26T13:12:46.411Z,6.80
2018-11-26T13:15:23.035Z,6.80
2018-11-26T13:17:51.956Z,6.70
2018-11-26T13:20:22.564Z,6.70
2018-11-26T13:22:51.464Z,6.70
2018-11-26T13:25:20.580Z,6.70
2018-11-26T13:27:50.700Z,6.70
2018-11-26T13:30:21.256Z,6.70
2018-11-26T13:32:50.590Z,6.70
2018-11-26T13:35:19.067Z,6.60
2018-11-26T13:37:46.986Z,6.60
2018-11-26T13:40:15.784Z,6.70
2018-11-26T13:42:43.844Z,6.60
2018-11-26T13:45:30.469Z,6.60
2018-11-26T13:47:58.381Z,6.70
2018-11-26T13:50:27.647Z,6.70
2018-11-26T13:52:55.927Z,6.70
2018-11-26T13:55:23.967Z,6.70
2018-11-26T13:57:51.984Z,6.80
2018-11-26T14:00:19.929Z,6.70
2018-11-26T14:02:47.917Z,6.70
2018-11-26T14:05:16.974Z,6.70
2018-11-26T14:07:45.278Z,6.70
2018-11-26T14:10:15.798Z,6.80
2018-11-26T14:12:45.442Z,6.80
2018-11-26T14:15:15.231Z,6.80
2018-11-26T14:17:43.142Z,6.80
2018-11-26T14:20:13.253Z,6.80
2018-11-26T14:22:41.220Z,6.80
2018-11-26T14:25:14.227Z,6.70
2018-11-26T14:27:44.756Z,6.70
2018-11-26T14:30:19.593Z,6.70
2018-11-26T14:32:47.663Z,6.70
2018-11-26T14:35:15.637Z,6.70
2018-11-26T14:37:45.424Z,6.70
2018-11-26T14:40:21.189Z,6.70
2018-11-26T14:42:49.050Z,6.70
2018-11-26T14:45:17.044Z,6.70
2018-11-26T14:47:46.237Z,6.70
2018-11-26T14:50:15.204Z,6.70
2018-11-26T14:52:44.496Z,6.70
2018-11-26T14:55:15.827Z,6.70
2018-11-26T14:57:43.774Z,6.70
2018-11-26T15:00:13.309Z,6.70
2018-11-26T15:02:41.390Z,6.70
2018-11-26T15:05:09.562Z,6.70
2018-11-26T15:07:37.477Z,6.70
2018-11-26T15:10:11.503Z,6.70
2018-11-26T15:12:39.548Z,6.70
2018-11-26T15:15:10.173Z,6.70
2018-11-26T15:17:38.296Z,6.70
2018-11-26T15:20:16.339Z,6.70
2018-11-26T15:22:44.400Z,6.60
2018-11-26T15:25:13.571Z,6.60
2018-11-26T15:27:41.538Z,6.60
2018-11-26T15:30:13.697Z,6.60
2018-11-26T15:32:42.629Z,6.60
2018-11-26T15:35:15.233Z,6.60
2018-11-26T15:37:43.280Z,6.60
2018-11-26T15:40:13.356Z,6.60
2018-11-26T15:42:41.463Z,6.60
2018-11-26T15:45:11.466Z,6.60
2018-11-26T15:47:39.388Z,6.60
2018-11-26T15:50:08.126Z,6.50
2018-11-26T15:52:36.101Z,6.50
2018-11-26T15:55:10.036Z,6.60
2018-11-26T15:57:37.999Z,6.60
2018-11-26T16:00:09.675Z,6.50
2018-11-26T16:02:37.747Z,6.50
2018-11-26T16:05:07.614Z,6.50
2018-11-26T16:07:36.029Z,6.50
2018-11-26T16:10:04.697Z,6.50
2018-11-26T16:12:32.821Z,6.50
2018-11-26T16:15:04.279Z,6.50
2018-11-26T16:17:32.235Z,6.50
2018-11-26T16:20:00.131Z,6.50
2018-11-26T16:22:29.056Z,6.50
2018-11-26T16:24:57.040Z,6.50
2018-11-26T16:27:25.128Z,6.50
2018-11-26T16:29:53.878Z,6.50
2018-11-26T16:32:22.522Z,6.50
2018-11-26T16:34:50.428Z,6.50
2018-11-26T16:37:18.540Z,6.50
2018-11-26T16:39:46.546Z,6.50
2018-11-26T16:42:14.394Z,6.50
2018-11-26T16:44:42.286Z,6.50
2018-11-26T16:47:10.302Z,6.40
2018-11-26T16:49:38.263Z,6.40
2018-11-26T16:52:06.184Z,6.50
2018-11-26T16:54:35.319Z,6.50
2018-11-26T16:57:04.382Z,6.50
2018-11-26T16:59:32.227Z,6.50
2018-11-26T17:02:00.290Z,6.50
2018-11-26T17:04:28.251Z,6.40
2018-11-26T17:06:58.265Z,6.50
2018-11-26T17:09:26.718Z,6.50
2018-11-26T17:11:54.854Z,6.50
2018-11-26T17:14:27.672Z,6.50
2018-11-26T17:16:55.559Z,6.50
2018-11-26T17:19:24.180Z,6.50
2018-11-26T17:21:52.272Z,6.50
2018-11-26T17:24:23.718Z,6.40
2018-11-26T17:26:52.494Z,6.40
2018-11-26T17:29:20.520Z,6.40
2018-11-26T17:31:48.446Z,6.40
2018-11-26T17:34:20.626Z,6.40
2018-11-26T17:36:49.737Z,6.40
2018-11-26T17:39:17.649Z,6.40
2018-11-26T17:41:45.555Z,6.40
2018-11-26T17:44:13.506Z,6.40
2018-11-26T17:46:42.814Z,6.40
2018-11-26T17:49:10.972Z,6.40
2018-11-26T17:51:40.020Z,6.40
2018-11-26T17:54:07.966Z,6.40
2018-11-26T17:56:35.992Z,6.40
2018-11-26T17:59:04.325Z,6.40
2018-11-26T18:01:37.722Z,6.40
2018-11-26T18:04:07.060Z,6.40
2018-11-26T18:06:36.691Z,6.40
2018-11-26T18:09:08.334Z,6.40
2018-11-26T18:11:36.352Z,6.40
2018-11-26T18:14:18.756Z,6.40
2018-11-26T18:16:46.724Z,6.40
2018-11-26T18:19:14.692Z,6.40
2018-11-26T18:21:42.704Z,6.40
2018-11-26T18:24:10.709Z,6.40
2018-11-26T18:26:39.316Z,6.40
2018-11-26T18:29:08.109Z,6.40
2018-11-26T18:31:36.417Z,6.40
2018-11-26T18:34:04.442Z,6.40
2018-11-26T18:36:32.452Z,6.40
2018-11-26T18:39:00.554Z,6.40
2018-11-26T18:41:28.524Z,6.40
2018-11-26T18:43:57.875Z,6.40
2018-11-26T18:46:26.166Z,6.40
2018-11-26T18:48:54.144Z,6.40
2018-11-26T18:51:22.090Z,6.40
2018-11-26T18:56:37.140Z,6.40
2018-11-26T18:59:05.374Z,6.40
2018-11-26T19:01:35.267Z,6.40
2018-11-26T19:04:03.184Z,6.40
2018-11-26T19:06:31.172Z,6.40
2018-11-26T19:08:59.204Z,6.40
2018-11-26T19:11:27.172Z,6.40
2018-11-26T19:14:02.704Z,6.40
2018-11-26T19:16:33.509Z,6.40
2018-11-26T19:19:01.769Z,6.40
2018-11-26T19:21:29.790Z,6.40
2018-11-26T19:23:58.131Z,6.50
2018-11-26T19:26:26.140Z,6.40
2018-11-26T19:28:54.065Z,6.40
2018-11-26T19:31:22.109Z,6.40
2018-11-26T19:33:50.361Z,6.50
2018-11-26T19:36:19.131Z,6.50
2018-11-26T19:38:47.067Z,6.50
2018-11-26T19:41:15.103Z,6.40
2018-11-26T19:43:43.754Z,6.40
2018-11-26T19:46:11.793Z,6.40
2018-11-26T19:48:39.753Z,6.40
2018-11-26T19:51:07.733Z,6.40
2018-11-26T19:53:35.786Z,6.40
2018-11-26T19:56:03.850Z,6.40
2018-11-26T19:58:31.941Z,6.40
2018-11-26T20:01:00.095Z,6.40
2018-11-26T20:03:35.732Z,6.40
2018-11-26T20:06:11.960Z,6.40
2018-11-26T20:08:40.651Z,6.40
2018-11-26T20:11:08.793Z,6.40
2018-11-26T20:13:36.708Z,6.40
2018-11-26T20:16:06.979Z,6.40
2018-11-26T20:18:35.320Z,6.40
2018-11-26T20:21:03.296Z,6.40
2018-11-26T20:23:31.209Z,6.40
2018-11-26T20:25:59.352Z,6.40
2018-11-26T20:28:27.381Z,6.40
2018-11-26T20:30:55.401Z,6.40
2018-11-26T20:33:23.403Z,6.40
2018-11-26T20:35:52.460Z,6.40
2018-11-26T20:38:20.503Z,6.40
2018-11-26T20:40:48.460Z,6.40
2018-11-26T20:43:16.709Z,6.40
2018-11-26T20:45:48.055Z,6.40
2018-11-26T20:48:16.072Z,6.40
2018-11-26T20:50:46.067Z,6.40
2018-11-26T20:53:14.049Z,6.40
2018-11-26T20:55:42.021Z,6.40
2018-11-26T20:58:09.891Z,6.40
2018-11-26T21:00:37.863Z,6.40
2018-11-26T21:03:08.257Z,6.40
2018-11-26T21:05:36.132Z,6.40
2018-11-26T21:08:04.094Z,6.40
2018-11-26T21:10:33.695Z,6.30
2018-11-26T21:13:01.636Z,6.30
2018-11-26T21:15:29.629Z,6.30
2018-11-26T21:17:58.369Z,6.30
2018-11-26T21:20:31.471Z,6.30
2018-11-26T21:22:59.425Z,6.30
2018-11-26T21:25:27.344Z,6.30
2018-11-26T21:27:55.269Z,6.30
2018-11-26T21:30:23.253Z,6.30
2018-11-26T21:32:52.044Z,6.30
2018-11-26T21:35:23.413Z,6.20
2018-11-26T21:37:52.135Z,6.20
2018-11-26T21:40:22.293Z,6.20
2018-11-26T21:42:50.291Z,6.20
2018-11-26T21:45:25.932Z,6.20
2018-11-26T21:47:53.830Z,6.20
2018-11-26T21:50:22.237Z,6.20
2018-11-26T21:52:50.119Z,6.20
2018-11-26T21:55:18.151Z,6.20
2018-11-26T21:57:46.209Z,6.30
2018-11-26T22:00:17.052Z,6.30
2018-11-26T22:02:45.072Z,6.30
2018-11-26T22:05:13.336Z,6.30
2018-11-26T22:07:41.760Z,6.30
2018-11-26T22:10:18.425Z,6.30
2018-11-26T22:12:49.526Z,6.30
2018-11-26T22:15:17.432Z,6.30
2018-11-26T22:17:46.289Z,6.20
2018-11-26T22:20:18.699Z,6.20
2018-11-26T22:22:46.907Z,6.20
2018-11-26T22:25:18.908Z,6.20
2018-11-26T22:27:46.557Z,6.10
2018-11-26T22:30:16.855Z,6.10
2018-11-26T22:32:44.738Z,6.00
2018-11-26T22:35:12.614Z,6.00
2018-11-26T22:37:41.117Z,6.00
2018-11-26T22:40:13.376Z,6.00
2018-11-26T22:42:43.298Z,5.90
2018-11-26T22:45:15.441Z,5.90
2018-11-26T22:47:46.723Z,5.90
2018-11-26T22:50:15.132Z,5.90
2018-11-26T22:52:43.994Z,5.90
2018-11-26T22:55:13.597Z,5.80
2018-11-26T22:57:42.050Z,5.80
2018-11-26T23:00:21.835Z,5.80
2018-11-26T23:02:50.090Z,5.80
2018-11-26T23:05:18.104Z,5.80
2018-11-26T23:07:45.979Z,5.80
2018-11-26T23:10:13.934Z,5.70
2018-11-26T23:12:41.826Z,5.70
2018-11-26T23:15:12.712Z,5.70
2018-11-26T23:17:41.154Z,5.70
2018-11-26T23:20:12.542Z,5.70
2018-11-26T23:22:40.420Z,5.70
2018-11-26T23:25:17.304Z,5.70
2018-11-26T23:27:46.512Z,5.70
2018-11-26T23:30:23.072Z,5.60
2018-11-26T23:32:58.718Z,5.60
2018-11-26T23:35:26.725Z,5.50
2018-11-26T23:37:54.544Z,5.50
2018-11-26T23:40:22.587Z,5.50
2018-11-26T23:42:50.862Z,5.40
2018-11-26T23:45:24.490Z,5.40
2018-11-26T23:47:52.385Z,5.40
2018-11-26T23:50:20.246Z,5.40
2018-11-26T23:52:48.102Z,5.40
2018-11-26T23:55:23.873Z,5.40
2018-11-26T23:57:51.843Z,5.40
